createdAt,value
2018-11-23T00:01:27.157Z,24.33
2018-11-23T00:09:48.303Z,24.10
2018-11-23T00:18:09.434Z,23.23
2018-11-23T00:26:30.591Z,23.97
2018-11-23T00:34:51.686Z,23.87
2018-11-23T00:43:12.794Z,22.63
2018-11-23T00:51:33.957Z,22.90
2018-11-23T00:59:55.049Z,25.73
2018-11-23T01:08:16.130Z,24.30
2018-11-23T01:16:37.298Z,23.30
2018-11-23T01:24:58.388Z,22.30
2018-11-23T01:33:19.503Z,22.47
2018-11-23T01:41:40.635Z,21.87
2018-11-23T01:50:01.718Z,21.60
2018-11-23T01:58:22.805Z,22.00
2018-11-23T02:06:44.011Z,20.67
2018-11-23T02:15:05.164Z,20.57
2018-11-23T02:23:26.242Z,19.97
2018-11-23T02:31:47.318Z,21.20
2018-11-23T02:40:08.687Z,22.27
2018-11-23T02:48:29.775Z,21.53
2018-11-23T02:56:50.871Z,20.57
2018-11-23T03:05:13.592Z,21.33
2018-11-23T03:13:34.681Z,20.60
2018-11-23T03:21:55.769Z,20.03
2018-11-23T03:30:19.202Z,21.07
2018-11-23T03:38:40.289Z,21.07
2018-11-23T03:47:01.376Z,20.27
2018-11-23T03:55:22.511Z,21.97
2018-11-23T04:03:43.628Z,21.90
2018-11-23T04:12:04.723Z,21.97
2018-11-23T04:20:25.817Z,20.90
2018-11-23T04:28:46.898Z,19.37
2018-11-23T04:37:07.998Z,21.23
2018-11-23T04:45:29.078Z,20.87
2018-11-23T04:53:50.159Z,21.77
2018-11-23T05:02:11.279Z,21.43
2018-11-23T05:10:32.357Z,22.13
2018-11-23T05:18:53.745Z,20.97
2018-11-23T05:27:14.858Z,21.23
2018-11-23T05:35:35.971Z,21.47
2018-11-23T05:43:57.054Z,21.90
2018-11-23T05:52:18.142Z,19.83
2018-11-23T06:00:39.287Z,21.27
2018-11-23T06:09:00.373Z,21.43
2018-11-23T06:17:21.466Z,22.17
2018-11-23T06:25:42.544Z,21.60
2018-11-23T06:34:03.642Z,22.43
2018-11-23T06:42:24.738Z,52.83
2018-11-23T06:50:45.886Z,23.93
2018-11-23T06:59:06.970Z,23.40
2018-11-23T07:07:28.190Z,23.03
2018-11-23T07:15:49.286Z,22.30
2018-11-23T07:24:10.790Z,24.57
2018-11-23T07:32:31.875Z,24.73
2018-11-23T07:40:53.807Z,22.53
2018-11-23T07:49:14.890Z,21.33
2018-11-23T07:57:36.110Z,24.87
2018-11-23T08:05:57.187Z,21.47
2018-11-23T08:14:18.290Z,21.30
2018-11-23T08:22:39.590Z,21.27
2018-11-23T08:31:00.670Z,21.70
2018-11-23T08:39:21.764Z,21.07
2018-11-23T08:47:42.865Z,20.70
2018-11-23T08:56:04.422Z,21.17
2018-11-23T09:04:25.607Z,20.07
2018-11-23T09:12:46.686Z,14.60
2018-11-23T09:21:08.126Z,45.20
2018-11-23T09:29:29.252Z,39.23
2018-11-23T09:37:50.835Z,25.10
2018-11-23T09:46:11.968Z,20.17
2018-11-23T09:54:33.098Z,21.43
2018-11-23T10:02:55.306Z,21.07
2018-11-23T10:11:16.422Z,19.97
2018-11-23T10:19:37.594Z,19.73
2018-11-23T10:27:58.723Z,19.13
2018-11-23T10:36:19.810Z,18.10
2018-11-23T10:44:40.927Z,16.83
2018-11-23T10:53:02.085Z,14.77
2018-11-23T11:01:28.886Z,13.57
2018-11-23T11:09:50.008Z,14.37
2018-11-23T11:18:11.161Z,13.63
2018-11-23T11:26:32.242Z,12.90
2018-11-23T11:34:53.309Z,12.27
2018-11-23T11:43:14.414Z,11.13
2018-11-23T11:51:35.550Z,10.67
2018-11-23T11:59:56.702Z,10.23
2018-11-23T12:08:17.782Z,10.67
2018-11-23T12:16:38.898Z,10.23
2018-11-23T12:25:00.058Z,10.10
2018-11-23T12:33:21.216Z,9.90
2018-11-23T12:41:42.302Z,10.50
2018-11-23T12:50:03.390Z,10.37
2018-11-23T12:58:24.873Z,10.60
2018-11-23T13:06:45.966Z,10.70
2018-11-23T13:15:07.052Z,9.77
2018-11-23T13:23:28.128Z,8.50
2018-11-23T13:31:49.215Z,9.03
2018-11-23T13:40:11.753Z,8.60
2018-11-23T13:48:33.007Z,8.40
2018-11-23T13:56:54.270Z,8.07
2018-11-23T14:05:18.695Z,9.33
2018-11-23T14:13:39.766Z,8.77
2018-11-23T14:22:01.569Z,8.17
2018-11-23T14:30:26.334Z,7.43
2018-11-23T14:38:47.453Z,9.00
2018-11-23T14:47:08.626Z,9.57
2018-11-23T14:55:30.178Z,10.60
2018-11-23T15:03:51.253Z,11.80
2018-11-23T15:12:12.378Z,11.23
2018-11-23T15:20:33.509Z,11.40
2018-11-23T15:28:54.690Z,10.90
2018-11-23T15:37:15.850Z,10.67
2018-11-23T15:45:37.398Z,11.70
2018-11-23T15:53:58.530Z,10.00
2018-11-23T16:02:19.631Z,10.23
2018-11-23T16:10:40.750Z,10.47
2018-11-23T16:19:01.875Z,10.13
2018-11-23T16:27:23.239Z,10.43
2018-11-23T16:35:44.418Z,10.73
2018-11-23T16:44:05.511Z,10.93
2018-11-23T16:52:26.682Z,15.03
2018-11-23T17:00:48.503Z,12.37
2018-11-23T17:09:09.576Z,13.83
2018-11-23T17:17:30.753Z,15.50
2018-11-23T17:25:52.142Z,16.17
2018-11-23T17:34:13.242Z,17.33
2018-11-23T17:42:34.318Z,16.70
2018-11-23T17:50:58.039Z,17.50
2018-11-23T17:59:19.169Z,16.20
2018-11-23T18:07:40.263Z,16.57
2018-11-23T18:16:02.217Z,15.43
2018-11-23T18:24:23.303Z,15.60
2018-11-23T18:32:44.410Z,15.03
2018-11-23T18:41:05.530Z,15.43
2018-11-23T18:49:26.678Z,13.37
2018-11-23T18:57:47.862Z,15.17
2018-11-23T19:06:08.990Z,14.23
2018-11-23T19:14:30.124Z,14.67
2018-11-23T19:22:51.190Z,14.73
2018-11-23T19:31:12.258Z,15.30
2018-11-23T19:39:33.390Z,15.50
2018-11-23T19:47:54.547Z,14.87
2018-11-23T19:56:15.678Z,14.27
2018-11-23T20:04:36.750Z,13.33
2018-11-23T20:12:57.878Z,14.33
2018-11-23T20:21:19.027Z,14.27
2018-11-23T20:29:40.184Z,14.23
2018-11-23T20:38:01.273Z,14.27
2018-11-23T20:46:22.346Z,13.60
2018-11-23T20:54:44.653Z,13.57
2018-11-23T21:03:04.631Z,12.27
2018-11-23T21:11:25.734Z,14.13
2018-11-23T21:28:14.281Z,14.20
2018-11-23T21:36:35.381Z,13.67
2018-11-23T21:44:56.884Z,12.60
2018-11-23T21:53:17.628Z,12.93
2018-11-23T22:01:38.716Z,12.90
2018-11-23T22:09:59.810Z,13.33
2018-11-23T22:18:20.881Z,13.07
2018-11-23T22:26:42.002Z,12.50
2018-11-23T22:35:04.105Z,12.90
2018-11-23T22:43:25.341Z,13.67
2018-11-23T22:51:47.426Z,12.23
2018-11-23T23:00:08.607Z,12.27
2018-11-23T23:08:29.683Z,12.53
2018-11-23T23:16:50.759Z,11.57
2018-11-23T23:25:11.910Z,11.53
2018-11-23T23:33:33.029Z,12.30
2018-11-23T23:41:54.203Z,11.27
2018-11-23T23:50:15.359Z,11.67
2018-11-23T23:58:36.429Z,12.77
